sensor_id;sensor_type;location;lat;lon;timestamp;temperature;humidity
12452;DHT22;6291;48.924;12.204;2023-02-15T00:01:16;-0.90;99.90
12452;DHT22;6291;48.924;12.204;2023-02-15T00:06:19;-0.40;99.90
12452;DHT22;6291;48.924;12.204;2023-02-15T00:11:24;-0.40;99.90
12452;DHT22;6291;48.924;12.204;2023-02-15T00:16:45;-0.30;99.90
12452;DHT22;6291;48.924;12.204;2023-02-15T00:21:48;-0.30;99.90
12452;DHT22;6291;48.924;12.204;2023-02-15T00:26:53;-0.40;99.90
12452;DHT22;6291;48.924;12.204;2023-02-15T00:31:56;-0.60;99.90
12452;DHT22;6291;48.924;12.204;2023-02-15T00:37:00;-0.60;99.90
12452;DHT22;6291;48.924;12.204;2023-02-15T00:42:05;-0.60;99.90
12452;DHT22;6291;48.924;12.204;2023-02-15T00:47:08;-0.60;99.90
12452;DHT22;6291;48.924;12.204;2023-02-15T00:52:11;-0.90;99.90
12452;DHT22;6291;48.924;12.204;2023-02-15T00:57:16;-0.80;99.90
12452;DHT22;6291;48.924;12.204;2023-02-15T01:02:20;-0.80;99.90
12452;DHT22;6291;48.924;12.204;2023-02-15T01:07:23;-0.70;99.90
12452;DHT22;6291;48.924;12.204;2023-02-15T01:12:28;-0.50;99.90
12452;DHT22;6291;48.924;12.204;2023-02-15T01:17:32;-0.40;99.90
12452;DHT22;6291;48.924;12.204;2023-02-15T01:22:38;-0.40;99.90
12452;DHT22;6291;48.924;12.204;2023-02-15T01:27:43;-0.40;99.90
12452;DHT22;6291;48.924;12.204;2023-02-15T01:32:47;-0.50;99.90
12452;DHT22;6291;48.924;12.204;2023-02-15T01:37:50;-0.70;99.90
12452;DHT22;6291;48.924;12.204;2023-02-15T01:42:55;-0.70;99.90
12452;DHT22;6291;48.924;12.204;2023-02-15T01:48:03;-0.70;99.90
12452;DHT22;6291;48.924;12.204;2023-02-15T01:53:12;-0.70;99.90
12452;DHT22;6291;48.924;12.204;2023-02-15T01:58:18;-0.70;99.90
12452;DHT22;6291;48.924;12.204;2023-02-15T02:03:35;-1.00;99.90
12452;DHT22;6291;48.924;12.204;2023-02-15T02:08:40;-1.20;99.90
12452;DHT22;6291;48.924;12.204;2023-02-15T02:13:45;-1.00;99.90
12452;DHT22;6291;48.924;12.204;2023-02-15T02:19:17;-0.90;99.90
12452;DHT22;6291;48.924;12.204;2023-02-15T02:35:40;-0.60;99.90
12452;DHT22;6291;48.924;12.204;2023-02-15T02:40:52;-0.60;99.90
12452;DHT22;6291;48.924;12.204;2023-02-15T02:46:02;-0.70;99.90
12452;DHT22;6291;48.924;12.204;2023-02-15T02:51:09;-0.60;99.90
12452;DHT22;6291;48.924;12.204;2023-02-15T02:56:21;-0.60;99.90
12452;DHT22;6291;48.924;12.204;2023-02-15T03:01:28;-0.70;99.90
12452;DHT22;6291;48.924;12.204;2023-02-15T03:06:39;-0.70;99.90
12452;DHT22;6291;48.924;12.204;2023-02-15T03:11:44;-0.80;99.90
12452;DHT22;6291;48.924;12.204;2023-02-15T03:16:51;-0.80;99.90
12452;DHT22;6291;48.924;12.204;2023-02-15T03:21:58;-0.80;99.90
12452;DHT22;6291;48.924;12.204;2023-02-15T03:27:14;-0.70;99.90
12452;DHT22;6291;48.924;12.204;2023-02-15T03:32:21;-0.80;99.90
12452;DHT22;6291;48.924;12.204;2023-02-15T03:37:32;-0.70;99.90
12452;DHT22;6291;48.924;12.204;2023-02-15T03:42:38;-0.60;99.90
12452;DHT22;6291;48.924;12.204;2023-02-15T03:47:46;-0.60;99.90
12452;DHT22;6291;48.924;12.204;2023-02-15T03:52:51;-0.60;99.90
12452;DHT22;6291;48.924;12.204;2023-02-15T03:57:55;1.10;99.90
12452;DHT22;6291;48.924;12.204;2023-02-15T04:03:23;-0.60;99.90
12452;DHT22;6291;48.924;12.204;2023-02-15T04:08:29;-0.70;99.90
12452;DHT22;6291;48.924;12.204;2023-02-15T04:13:46;-0.80;99.90
12452;DHT22;6291;48.924;12.204;2023-02-15T04:18:49;-0.80;99.90
12452;DHT22;6291;48.924;12.204;2023-02-15T04:24:12;-0.80;99.90
12452;DHT22;6291;48.924;12.204;2023-02-15T04:29:33;-0.80;99.90
12452;DHT22;6291;48.924;12.204;2023-02-15T04:34:37;-0.80;99.90
12452;DHT22;6291;48.924;12.204;2023-02-15T04:39:41;-0.80;99.90
12452;DHT22;6291;48.924;12.204;2023-02-15T04:44:45;-0.80;99.90
12452;DHT22;6291;48.924;12.204;2023-02-15T04:49:48;-1.00;99.90
12452;DHT22;6291;48.924;12.204;2023-02-15T04:54:53;-1.00;99.90
12452;DHT22;6291;48.924;12.204;2023-02-15T04:59:56;-0.80;99.90
12452;DHT22;6291;48.924;12.204;2023-02-15T05:05:01;-1.00;99.90
12452;DHT22;6291;48.924;12.204;2023-02-15T05:10:07;-1.00;99.90
12452;DHT22;6291;48.924;12.204;2023-02-15T05:15:10;-1.20;99.90
12452;DHT22;6291;48.924;12.204;2023-02-15T05:20:13;-1.30;99.90
12452;DHT22;6291;48.924;12.204;2023-02-15T05:25:18;-1.40;99.90
12452;DHT22;6291;48.924;12.204;2023-02-15T05:30:39;-1.30;99.90
12452;DHT22;6291;48.924;12.204;2023-02-15T05:35:43;-1.20;99.90
12452;DHT22;6291;48.924;12.204;2023-02-15T05:40:48;-0.30;99.90
12452;DHT22;6291;48.924;12.204;2023-02-15T05:45:54;-1.00;99.90
12452;DHT22;6291;48.924;12.204;2023-02-15T05:50:59;-0.90;99.90
12452;DHT22;6291;48.924;12.204;2023-02-15T05:56:04;-0.90;99.90
12452;DHT22;6291;48.924;12.204;2023-02-15T06:01:09;-1.00;99.90
12452;DHT22;6291;48.924;12.204;2023-02-15T06:06:13;-0.80;99.90
12452;DHT22;6291;48.924;12.204;2023-02-15T06:11:17;-0.80;99.90
12452;DHT22;6291;48.924;12.204;2023-02-15T06:16:21;-0.80;99.90
12452;DHT22;6291;48.924;12.204;2023-02-15T06:21:24;-0.90;99.90
12452;DHT22;6291;48.924;12.204;2023-02-15T06:26:30;-1.40;99.90
12452;DHT22;6291;48.924;12.204;2023-02-15T06:31:33;-1.20;99.90
12452;DHT22;6291;48.924;12.204;2023-02-15T06:36:37;-1.20;99.90
12452;DHT22;6291;48.924;12.204;2023-02-15T06:41:41;-1.10;99.90
12452;DHT22;6291;48.924;12.204;2023-02-15T06:46:45;-1.00;99.90
12452;DHT22;6291;48.924;12.204;2023-02-15T06:51:48;-1.00;99.90
12452;DHT22;6291;48.924;12.204;2023-02-15T06:56:53;-1.10;99.90
12452;DHT22;6291;48.924;12.204;2023-02-15T07:01:56;-1.10;99.90
12452;DHT22;6291;48.924;12.204;2023-02-15T07:07:00;-0.90;99.90
12452;DHT22;6291;48.924;12.204;2023-02-15T07:12:06;-1.10;99.90
12452;DHT22;6291;48.924;12.204;2023-02-15T07:17:27;-1.20;99.90
12452;DHT22;6291;48.924;12.204;2023-02-15T07:22:39;-1.10;99.90
12452;DHT22;6291;48.924;12.204;2023-02-15T07:27:43;-0.90;99.90
12452;DHT22;6291;48.924;12.204;2023-02-15T07:32:47;-0.90;99.90
12452;DHT22;6291;48.924;12.204;2023-02-15T07:38:07;1.50;99.90
12452;DHT22;6291;48.924;12.204;2023-02-15T07:43:12;-0.80;99.90
12452;DHT22;6291;48.924;12.204;2023-02-15T07:48:16;-0.80;99.90
12452;DHT22;6291;48.924;12.204;2023-02-15T07:53:20;-0.90;99.90
12452;DHT22;6291;48.924;12.204;2023-02-15T07:58:24;-0.90;99.90
12452;DHT22;6291;48.924;12.204;2023-02-15T08:03:48;-0.90;99.90
12452;DHT22;6291;48.924;12.204;2023-02-15T08:08:52;-0.90;99.90
12452;DHT22;6291;48.924;12.204;2023-02-15T08:13:58;-1.20;99.90
12452;DHT22;6291;48.924;12.204;2023-02-15T08:19:04;-1.20;99.90
12452;DHT22;6291;48.924;12.204;2023-02-15T08:24:09;-0.90;99.90
12452;DHT22;6291;48.924;12.204;2023-02-15T08:29:15;-0.70;99.90
12452;DHT22;6291;48.924;12.204;2023-02-15T08:34:20;-0.70;99.90
12452;DHT22;6291;48.924;12.204;2023-02-15T08:39:24;-0.70;99.90
12452;DHT22;6291;48.924;12.204;2023-02-15T08:44:29;-1.10;99.90
12452;DHT22;6291;48.924;12.204;2023-02-15T08:49:32;-1.10;99.90
12452;DHT22;6291;48.924;12.204;2023-02-15T08:54:35;-1.10;99.90
12452;DHT22;6291;48.924;12.204;2023-02-15T08:59:40;-0.90;99.90
12452;DHT22;6291;48.924;12.204;2023-02-15T09:04:43;-0.70;99.90
12452;DHT22;6291;48.924;12.204;2023-02-15T09:09:47;-0.70;99.90
12452;DHT22;6291;48.924;12.204;2023-02-15T09:14:52;-0.60;99.90
12452;DHT22;6291;48.924;12.204;2023-02-15T09:19:55;-1.00;99.90
12452;DHT22;6291;48.924;12.204;2023-02-15T09:24:58;-0.90;99.90
12452;DHT22;6291;48.924;12.204;2023-02-15T09:30:04;-1.00;99.90
12452;DHT22;6291;48.924;12.204;2023-02-15T09:35:08;-0.90;99.90
12452;DHT22;6291;48.924;12.204;2023-02-15T09:40:15;-1.10;99.90
12452;DHT22;6291;48.924;12.204;2023-02-15T09:45:26;-1.00;99.90
12452;DHT22;6291;48.924;12.204;2023-02-15T09:50:38;-0.90;99.90
12452;DHT22;6291;48.924;12.204;2023-02-15T09:55:53;-1.00;99.90
12452;DHT22;6291;48.924;12.204;2023-02-15T10:01:03;-0.80;99.90
12452;DHT22;6291;48.924;12.204;2023-02-15T10:06:31;-0.70;99.90
12452;DHT22;6291;48.924;12.204;2023-02-15T10:11:48;-0.70;99.90
12452;DHT22;6291;48.924;12.204;2023-02-15T10:17:00;-0.80;99.90
12452;DHT22;6291;48.924;12.204;2023-02-15T10:22:19;-0.60;99.90
12452;DHT22;6291;48.924;12.204;2023-02-15T10:27:26;-0.40;99.90
12452;DHT22;6291;48.924;12.204;2023-02-15T10:32:35;-0.20;99.90
12452;DHT22;6291;48.924;12.204;2023-02-15T10:37:49;-0.10;99.90
12452;DHT22;6291;48.924;12.204;2023-02-15T10:43:08;0.10;99.90
12452;DHT22;6291;48.924;12.204;2023-02-15T10:48:54;0.10;46.80
12452;DHT22;6291;48.924;12.204;2023-02-15T10:54:09;0.10;80.70
12452;DHT22;6291;48.924;12.204;2023-02-15T10:59:42;0.10;73.10
12452;DHT22;6291;48.924;12.204;2023-02-15T11:05:01;0.30;94.90
12452;DHT22;6291;48.924;12.204;2023-02-15T11:10:18;0.30;1.00
12452;DHT22;6291;48.924;12.204;2023-02-15T11:15:30;0.20;1.00
12452;DHT22;6291;48.924;12.204;2023-02-15T11:20:38;-1.60;99.90
12452;DHT22;6291;48.924;12.204;2023-02-15T11:25:47;0.20;99.90
12452;DHT22;6291;48.924;12.204;2023-02-15T11:30:55;0.20;99.90
12452;DHT22;6291;48.924;12.204;2023-02-15T11:36:05;0.30;99.90
12452;DHT22;6291;48.924;12.204;2023-02-15T11:41:12;0.50;94.10
12452;DHT22;6291;48.924;12.204;2023-02-15T11:46:16;0.30;23.60
12452;DHT22;6291;48.924;12.204;2023-02-15T11:51:23;0.40;1.00
12452;DHT22;6291;48.924;12.204;2023-02-15T11:56:26;0.50;83.00
12452;DHT22;6291;48.924;12.204;2023-02-15T12:01:31;0.70;32.40
12452;DHT22;6291;48.924;12.204;2023-02-15T12:06:42;0.30;1.00
12452;DHT22;6291;48.924;12.204;2023-02-15T12:11:47;-1.10;99.90
12452;DHT22;6291;48.924;12.204;2023-02-15T12:16:52;0.50;99.90
12452;DHT22;6291;48.924;12.204;2023-02-15T12:21:58;0.70;33.60
12452;DHT22;6291;48.924;12.204;2023-02-15T12:27:04;0.70;6.40
12452;DHT22;6291;48.924;12.204;2023-02-15T12:32:15;0.60;1.00
12452;DHT22;6291;48.924;12.204;2023-02-15T12:37:23;0.50;1.00
12452;DHT22;6291;48.924;12.204;2023-02-15T12:42:41;0.60;1.00
12452;DHT22;6291;48.924;12.204;2023-02-15T12:47:44;0.60;1.00
12452;DHT22;6291;48.924;12.204;2023-02-15T12:52:50;0.60;1.00
12452;DHT22;6291;48.924;12.204;2023-02-15T12:58:08;0.50;1.00
12452;DHT22;6291;48.924;12.204;2023-02-15T13:03:17;0.50;72.40
12452;DHT22;6291;48.924;12.204;2023-02-15T13:08:28;0.50;41.30
12452;DHT22;6291;48.924;12.204;2023-02-15T13:13:33;0.40;91.00
12452;DHT22;6291;48.924;12.204;2023-02-15T13:18:38;0.60;99.90
12452;DHT22;6291;48.924;12.204;2023-02-15T13:23:47;0.90;1.00
12452;DHT22;6291;48.924;12.204;2023-02-15T13:28:53;0.60;1.00
12452;DHT22;6291;48.924;12.204;2023-02-15T13:34:02;0.70;1.00
12452;DHT22;6291;48.924;12.204;2023-02-15T13:39:13;0.70;1.00
12452;DHT22;6291;48.924;12.204;2023-02-15T13:44:25;0.70;1.00
12452;DHT22;6291;48.924;12.204;2023-02-15T13:49:39;0.70;1.00
12452;DHT22;6291;48.924;12.204;2023-02-15T13:54:57;0.70;17.40
12452;DHT22;6291;48.924;12.204;2023-02-15T14:00:12;0.70;78.10
12452;DHT22;6291;48.924;12.204;2023-02-15T14:05:39;0.80;1.00
12452;DHT22;6291;48.924;12.204;2023-02-15T14:10:56;0.80;1.00
12452;DHT22;6291;48.924;12.204;2023-02-15T14:16:05;0.80;1.00
12452;DHT22;6291;48.924;12.204;2023-02-15T14:21:13;0.80;1.00
12452;DHT22;6291;48.924;12.204;2023-02-15T14:26:23;0.60;1.00
12452;DHT22;6291;48.924;12.204;2023-02-15T14:31:37;0.60;60.70
12452;DHT22;6291;48.924;12.204;2023-02-15T14:36:43;0.80;42.40
12452;DHT22;6291;48.924;12.204;2023-02-15T14:41:50;0.70;89.50
12452;DHT22;6291;48.924;12.204;2023-02-15T14:47:01;0.70;1.00
12452;DHT22;6291;48.924;12.204;2023-02-15T14:52:09;0.60;37.70
12452;DHT22;6291;48.924;12.204;2023-02-15T14:57:24;0.70;1.00
12452;DHT22;6291;48.924;12.204;2023-02-15T15:02:30;0.40;1.00
12452;DHT22;6291;48.924;12.204;2023-02-15T15:07:44;0.40;91.20
12452;DHT22;6291;48.924;12.204;2023-02-15T15:12:50;0.50;99.90
12452;DHT22;6291;48.924;12.204;2023-02-15T15:17:59;0.60;99.90
12452;DHT22;6291;48.924;12.204;2023-02-15T15:23:40;2.40;96.30
12452;DHT22;6291;48.924;12.204;2023-02-15T15:28:56;0.30;88.70
12452;DHT22;6291;48.924;12.204;2023-02-15T15:34:21;0.40;99.90
12452;DHT22;6291;48.924;12.204;2023-02-15T15:45:35;0.10;99.90
12452;DHT22;6291;48.924;12.204;2023-02-15T15:50:42;0.20;99.90
12452;DHT22;6291;48.924;12.204;2023-02-15T15:55:47;0.10;99.90
12452;DHT22;6291;48.924;12.204;2023-02-15T16:00:56;0.30;99.90
12452;DHT22;6291;48.924;12.204;2023-02-15T16:06:01;-0.20;99.90
12452;DHT22;6291;48.924;12.204;2023-02-15T16:11:11;0.20;99.90
12452;DHT22;6291;48.924;12.204;2023-02-15T16:16:22;0.00;99.90
12452;DHT22;6291;48.924;12.204;2023-02-15T16:21:29;0.00;99.90
12452;DHT22;6291;48.924;12.204;2023-02-15T16:26:50;0.00;99.90
12452;DHT22;6291;48.924;12.204;2023-02-15T16:32:04;0.10;99.90
12452;DHT22;6291;48.924;12.204;2023-02-15T16:37:18;0.30;99.90
12452;DHT22;6291;48.924;12.204;2023-02-15T16:42:24;0.10;99.90
12452;DHT22;6291;48.924;12.204;2023-02-15T16:47:31;-0.20;99.90
12452;DHT22;6291;48.924;12.204;2023-02-15T16:52:36;-0.40;99.90
12452;DHT22;6291;48.924;12.204;2023-02-15T16:57:43;-0.40;99.90
12452;DHT22;6291;48.924;12.204;2023-02-15T17:02:58;-0.40;99.90
12452;DHT22;6291;48.924;12.204;2023-02-15T17:08:14;-0.40;99.90
12452;DHT22;6291;48.924;12.204;2023-02-15T17:13:18;-0.30;99.90
12452;DHT22;6291;48.924;12.204;2023-02-15T17:18:25;-0.50;99.90
12452;DHT22;6291;48.924;12.204;2023-02-15T17:23:31;-0.50;99.90
12452;DHT22;6291;48.924;12.204;2023-02-15T17:28:35;-0.60;99.90
12452;DHT22;6291;48.924;12.204;2023-02-15T17:33:41;-0.50;99.90
12452;DHT22;6291;48.924;12.204;2023-02-15T17:39:01;-0.40;99.90
12452;DHT22;6291;48.924;12.204;2023-02-15T17:44:05;-0.40;99.90
12452;DHT22;6291;48.924;12.204;2023-02-15T17:49:25;-0.20;99.90
12452;DHT22;6291;48.924;12.204;2023-02-15T17:54:33;-0.30;99.90
12452;DHT22;6291;48.924;12.204;2023-02-15T18:00:07;-0.50;99.90
12452;DHT22;6291;48.924;12.204;2023-02-15T18:05:29;-0.40;99.90
12452;DHT22;6291;48.924;12.204;2023-02-15T18:10:50;-0.30;99.90
12452;DHT22;6291;48.924;12.204;2023-02-15T18:16:17;-0.50;99.90
12452;DHT22;6291;48.924;12.204;2023-02-15T18:21:24;-0.40;99.90
12452;DHT22;6291;48.924;12.204;2023-02-15T18:26:27;-0.30;99.90
12452;DHT22;6291;48.924;12.204;2023-02-15T18:31:31;-0.40;99.90
12452;DHT22;6291;48.924;12.204;2023-02-15T18:36:41;-0.30;99.90
12452;DHT22;6291;48.924;12.204;2023-02-15T18:41:45;-0.30;99.90
12452;DHT22;6291;48.924;12.204;2023-02-15T18:46:49;-0.30;99.90
12452;DHT22;6291;48.924;12.204;2023-02-15T18:51:53;-0.40;99.90
12452;DHT22;6291;48.924;12.204;2023-02-15T18:56:57;-0.20;99.90
12452;DHT22;6291;48.924;12.204;2023-02-15T19:02:02;-0.50;99.90
12452;DHT22;6291;48.924;12.204;2023-02-15T19:07:14;-0.70;99.90
12452;DHT22;6291;48.924;12.204;2023-02-15T19:12:18;-0.70;99.90
12452;DHT22;6291;48.924;12.204;2023-02-15T19:17:22;-0.80;99.90
12452;DHT22;6291;48.924;12.204;2023-02-15T19:22:29;-0.70;99.90
12452;DHT22;6291;48.924;12.204;2023-02-15T19:27:33;-0.70;99.90
12452;DHT22;6291;48.924;12.204;2023-02-15T19:32:37;-0.60;99.90
12452;DHT22;6291;48.924;12.204;2023-02-15T19:37:43;-0.60;99.90
12452;DHT22;6291;48.924;12.204;2023-02-15T19:42:48;-0.70;99.90
12452;DHT22;6291;48.924;12.204;2023-02-15T19:47:52;-0.70;99.90
12452;DHT22;6291;48.924;12.204;2023-02-15T19:52:57;-0.60;99.90
12452;DHT22;6291;48.924;12.204;2023-02-15T19:58:01;-0.50;99.90
12452;DHT22;6291;48.924;12.204;2023-02-15T20:03:05;-0.40;99.90
12452;DHT22;6291;48.924;12.204;2023-02-15T20:08:15;-0.40;99.90
12452;DHT22;6291;48.924;12.204;2023-02-15T20:13:19;-0.50;99.90
12452;DHT22;6291;48.924;12.204;2023-02-15T20:18:23;-0.90;99.90
12452;DHT22;6291;48.924;12.204;2023-02-15T20:23:29;-0.40;99.90
12452;DHT22;6291;48.924;12.204;2023-02-15T20:28:33;-0.90;99.90
12452;DHT22;6291;48.924;12.204;2023-02-15T20:33:36;-0.80;99.90
12452;DHT22;6291;48.924;12.204;2023-02-15T20:38:41;-0.60;99.90
12452;DHT22;6291;48.924;12.204;2023-02-15T20:43:45;-0.70;99.90
12452;DHT22;6291;48.924;12.204;2023-02-15T20:48:49;-0.80;99.90
12452;DHT22;6291;48.924;12.204;2023-02-15T20:53:54;-1.00;99.90
12452;DHT22;6291;48.924;12.204;2023-02-15T20:58:57;-0.90;99.90
12452;DHT22;6291;48.924;12.204;2023-02-15T21:04:01;-0.70;99.90
12452;DHT22;6291;48.924;12.204;2023-02-15T21:09:05;-0.70;99.90
12452;DHT22;6291;48.924;12.204;2023-02-15T21:14:15;-0.80;99.90
12452;DHT22;6291;48.924;12.204;2023-02-15T21:19:21;-0.80;99.90
12452;DHT22;6291;48.924;12.204;2023-02-15T21:24:27;0.30;99.90
12452;DHT22;6291;48.924;12.204;2023-02-15T21:29:31;-0.60;99.90
12452;DHT22;6291;48.924;12.204;2023-02-15T21:34:34;0.00;99.90
12452;DHT22;6291;48.924;12.204;2023-02-15T21:39:39;-0.50;99.90
12452;DHT22;6291;48.924;12.204;2023-02-15T21:44:42;-0.30;99.90
12452;DHT22;6291;48.924;12.204;2023-02-15T21:50:04;-0.50;99.90
12452;DHT22;6291;48.924;12.204;2023-02-15T21:55:23;-1.00;99.90
12452;DHT22;6291;48.924;12.204;2023-02-15T22:00:27;-0.90;99.90
12452;DHT22;6291;48.924;12.204;2023-02-15T22:05:32;-0.90;99.90
12452;DHT22;6291;48.924;12.204;2023-02-15T22:10:37;-1.10;99.90
12452;DHT22;6291;48.924;12.204;2023-02-15T22:15:41;-1.20;99.90
12452;DHT22;6291;48.924;12.204;2023-02-15T22:20:45;-1.10;99.90
12452;DHT22;6291;48.924;12.204;2023-02-15T22:25:52;-1.00;99.90
12452;DHT22;6291;48.924;12.204;2023-02-15T22:30:58;-1.00;99.90
12452;DHT22;6291;48.924;12.204;2023-02-15T22:36:03;-1.00;99.90
12452;DHT22;6291;48.924;12.204;2023-02-15T22:41:09;-1.10;99.90
12452;DHT22;6291;48.924;12.204;2023-02-15T22:46:14;-0.80;99.90
12452;DHT22;6291;48.924;12.204;2023-02-15T22:51:19;-1.20;99.90
12452;DHT22;6291;48.924;12.204;2023-02-15T22:56:28;-1.20;99.90
12452;DHT22;6291;48.924;12.204;2023-02-15T23:01:35;-1.30;99.90
12452;DHT22;6291;48.924;12.204;2023-02-15T23:06:40;-1.20;99.90
12452;DHT22;6291;48.924;12.204;2023-02-15T23:11:45;-1.20;99.90
12452;DHT22;6291;48.924;12.204;2023-02-15T23:16:48;-1.20;99.90
12452;DHT22;6291;48.924;12.204;2023-02-15T23:21:52;-1.20;99.90
12452;DHT22;6291;48.924;12.204;2023-02-15T23:26:57;-0.90;99.90
12452;DHT22;6291;48.924;12.204;2023-02-15T23:32:21;-1.20;99.90
12452;DHT22;6291;48.924;12.204;2023-02-15T23:37:24;-1.20;99.90
12452;DHT22;6291;48.924;12.204;2023-02-15T23:42:30;-1.10;99.90
12452;DHT22;6291;48.924;12.204;2023-02-15T23:47:35;-1.20;99.90
12452;DHT22;6291;48.924;12.204;2023-02-15T23:52:57;-1.30;99.90
12452;DHT22;6291;48.924;12.204;2023-02-15T23:58:02;-1.20;99.90
